Time;durP1;ratioP1;P1;durP2;ratioP2;P2;SDS_P1;SDS_P2;PMS_P1;PMS_P2;Temp;Humidity;BMP_temperature;BMP_pressure;BME280_temperature;BME280_humidity;BME280_pressure;Samples;Min_cycle;Max_cycle;Signal;HPM_P1;HPM_P2
2023/04/29 00:02:44;;;;;;;0.82;0.47;;;;;;;15.72;63.90;99917.78;10325819;28;20070;-57
2023/04/29 00:07:45;;;;;;;1.27;0.40;;;;;;;15.68;63.84;99917.41;10318302;28;20117;-58
2023/04/29 00:12:47;;;;;;;2.28;0.70;;;;;;;15.56;64.07;99930.84;10328161;28;20146;-57
2023/04/29 00:17:49;;;;;;;0.93;0.50;;;;;;;15.58;63.84;99939.56;10323040;28;20093;-57
2023/04/29 00:22:51;;;;;;;1.55;0.95;;;;;;;15.33;64.55;99941.41;10326575;28;20050;-57
2023/04/29 00:27:52;;;;;;;1.70;0.70;;;;;;;15.29;64.61;99935.59;10309327;28;20058;-57
2023/04/29 00:32:54;;;;;;;1.40;0.88;;;;;;;15.36;64.39;99933.66;10317375;28;20050;-58
2023/04/29 00:37:55;;;;;;;1.10;0.88;;;;;;;15.38;64.45;99941.56;10331814;28;20133;-57
2023/04/29 00:42:57;;;;;;;3.95;0.93;;;;;;;15.33;64.48;99936.00;10324229;28;20551;-57
2023/04/29 00:47:58;;;;;;;1.98;1.10;;;;;;;15.21;64.78;99931.25;10329033;28;20073;-58
2023/04/29 00:53:00;;;;;;;2.45;1.15;;;;;;;15.22;64.74;99930.19;10321286;28;20046;-57
2023/04/29 00:58:03;;;;;;;2.13;1.10;;;;;;;15.28;64.64;99931.19;10322689;28;20053;-56
2023/04/29 01:03:04;;;;;;;2.17;1.48;;;;;;;15.29;64.91;99927.47;10319906;28;20062;-56
2023/04/29 01:08:36;;;;;;;1.58;1.30;;;;;;;15.22;64.89;99932.06;10326982;28;20050;-57
2023/04/29 01:13:53;;;;;;;1.70;1.17;;;;;;;15.36;64.36;99933.66;10325243;28;20108;-57
2023/04/29 01:19:00;;;;;;;1.92;1.10;;;;;;;15.35;64.43;99933.88;10316873;28;20138;-57
2023/04/29 01:24:02;;;;;;;2.63;0.80;;;;;;;15.42;64.41;99931.94;10318805;28;20489;-58
2023/04/29 01:29:31;;;;;;;1.27;0.65;;;;;;;15.52;64.36;99929.63;10319714;28;20101;-57
2023/04/29 01:34:47;;;;;;;2.58;0.75;;;;;;;15.51;64.31;99927.94;10328474;28;20046;-57
2023/04/29 01:40:00;;;;;;;1.37;0.70;;;;;;;15.64;64.12;99929.75;10336137;28;20066;-57
2023/04/29 01:45:05;;;;;;;1.15;0.95;;;;;;;15.51;64.45;99927.94;10331670;28;20066;-57
2023/04/29 01:50:07;;;;;;;1.27;0.70;;;;;;;15.43;65.00;99925.50;10323894;28;20081;-58
2023/04/29 01:55:09;;;;;;;1.33;0.70;;;;;;;15.48;65.12;99925.66;10331447;28;20078;-58
2023/04/29 02:00:11;;;;;;;0.60;0.60;;;;;;;15.48;65.12;99931.06;10330459;28;20472;-59
2023/04/29 02:05:13;;;;;;;0.75;0.50;;;;;;;15.46;65.12;99936.72;10322551;28;20207;-58
2023/04/29 02:10:15;;;;;;;0.73;0.60;;;;;;;15.47;65.29;99940.25;10330937;28;20546;-58
2023/04/29 02:15:16;;;;;;;2.13;0.60;;;;;;;15.42;65.66;99943.63;10321546;28;20476;-59
2023/04/29 02:20:18;;;;;;;0.30;0.30;;;;;;;15.43;65.89;99930.91;10331078;28;20074;-58
2023/04/29 02:25:19;;;;;;;0.52;0.40;;;;;;;15.25;66.67;99935.19;10324714;28;20078;-58
2023/04/29 02:30:21;;;;;;;1.55;0.40;;;;;;;15.24;66.60;99940.81;10321223;28;20126;-58
2023/04/29 02:35:22;;;;;;;1.17;0.40;;;;;;;15.28;66.56;99944.75;10322308;28;20146;-56
2023/04/29 02:40:25;;;;;;;1.55;0.60;;;;;;;15.29;66.57;99946.41;10329739;28;20677;-57
2023/04/29 02:45:26;;;;;;;1.00;0.80;;;;;;;15.21;66.73;99955.63;10325097;28;20090;-58
2023/04/29 02:50:27;;;;;;;2.47;1.88;;;;;;;15.22;66.56;99959.16;10325409;28;20105;-57
2023/04/29 02:55:29;;;;;;;3.20;2.15;;;;;;;15.19;66.38;99951.47;10324505;28;20053;-57
2023/04/29 03:00:30;;;;;;;2.45;1.98;;;;;;;15.13;66.12;99964.00;10322013;28;20410;-56
2023/04/29 03:05:32;;;;;;;3.88;2.15;;;;;;;15.11;66.09;99955.25;10328195;28;20042;-57
2023/04/29 03:10:33;;;;;;;4.78;3.40;;;;;;;15.06;65.90;99958.59;10326249;28;20044;-56
2023/04/29 03:15:35;;;;;;;6.10;4.20;;;;;;;14.99;65.71;99965.09;10318542;28;20157;-56
2023/04/29 03:20:37;;;;;;;6.15;4.18;;;;;;;14.92;65.71;99958.88;10315291;28;20133;-57
2023/04/29 03:25:39;;;;;;;5.70;4.13;;;;;;;14.84;65.83;99963.47;10318596;28;20077;-57
2023/04/29 03:30:41;;;;;;;5.95;4.32;;;;;;;14.84;65.50;99959.94;10317942;28;20053;-56
2023/04/29 03:35:42;;;;;;;5.68;4.53;;;;;;;14.70;65.60;99958.34;10323034;28;20069;-58
2023/04/29 03:40:44;;;;;;;8.73;4.65;;;;;;;14.63;65.83;99958.34;10317029;28;20585;-58
2023/04/29 03:45:45;;;;;;;6.72;5.20;;;;;;;14.60;65.54;99966.88;10323668;28;20438;-56
2023/04/29 03:50:47;;;;;;;8.52;5.78;;;;;;;14.59;65.33;99973.31;10310799;28;20401;-57
2023/04/29 03:55:48;;;;;;;8.82;5.75;;;;;;;14.48;65.11;99966.69;10308637;28;20046;-57
2023/04/29 04:00:50;;;;;;;7.30;4.97;;;;;;;14.46;64.63;99984.97;10333050;28;20052;-57
2023/04/29 04:05:51;;;;;;;8.88;5.28;;;;;;;14.44;64.69;99993.31;10328975;28;20073;-57
2023/04/29 04:10:53;;;;;;;8.93;5.63;;;;;;;14.43;64.39;100009.72;10334917;28;20582;-57
2023/04/29 04:15:54;;;;;;;10.55;5.93;;;;;;;14.41;64.30;100015.34;10337350;28;20156;-57
2023/04/29 04:20:55;;;;;;;8.95;6.30;;;;;;;14.36;64.19;100031.38;10337222;28;20039;-57
2023/04/29 04:25:57;;;;;;;11.93;6.50;;;;;;;14.36;63.90;100050.31;10334267;28;20089;-57
2023/04/29 04:30:58;;;;;;;9.88;6.15;;;;;;;14.42;63.71;100048.66;10327853;28;20090;-57
2023/04/29 04:35:59;;;;;;;14.20;6.88;;;;;;;14.37;63.29;100051.13;10327090;28;20046;-57
2023/04/29 04:41:01;;;;;;;9.27;6.60;;;;;;;14.39;63.10;100058.00;10321532;28;20168;-57
2023/04/29 04:46:10;;;;;;;11.27;7.50;;;;;;;14.33;63.10;100055.28;10331415;28;20049;-57
2023/04/29 04:51:12;;;;;;;10.90;6.93;;;;;;;14.28;63.00;100055.94;10325348;28;20039;-57
2023/04/29 04:56:14;;;;;;;14.02;7.32;;;;;;;14.20;63.02;100061.53;10330006;28;20140;-57
2023/04/29 05:01:15;;;;;;;11.65;6.57;;;;;;;14.21;62.73;100065.91;10338193;28;20069;-57
2023/04/29 05:06:16;;;;;;;11.50;6.25;;;;;;;14.14;62.95;100073.16;10335176;28;20038;-57
2023/04/29 05:11:19;;;;;;;11.10;6.07;;;;;;;14.24;62.59;100089.84;10342818;28;20066;-57
2023/04/29 05:16:21;;;;;;;11.07;6.72;;;;;;;14.29;62.32;100101.66;10332045;28;20433;-57
2023/04/29 05:21:22;;;;;;;9.45;5.68;;;;;;;14.44;62.12;100101.47;10339412;28;20108;-57
2023/04/29 05:26:23;;;;;;;9.30;5.93;;;;;;;14.72;61.18;100110.47;10323671;28;20069;-58
2023/04/29 05:31:26;;;;;;;9.77;5.40;;;;;;;14.87;60.99;100114.63;10334290;28;20049;-57
2023/04/29 05:36:28;;;;;;;11.00;6.60;;;;;;;15.00;60.72;100127.28;10333006;28;20038;-57
2023/04/29 05:41:30;;;;;;;8.63;5.22;;;;;;;15.13;60.19;100139.97;10325145;28;20050;-57
2023/04/29 05:46:31;;;;;;;13.23;5.18;;;;;;;15.08;60.42;100151.41;10327180;28;20196;-57
2023/04/29 05:51:32;;;;;;;9.43;5.50;;;;;;;15.23;60.00;100155.78;10341976;28;20048;-57
2023/04/29 05:56:34;;;;;;;7.47;4.55;;;;;;;15.21;59.96;100161.41;10338330;28;20484;-56
2023/04/29 06:01:35;;;;;;;7.75;4.80;;;;;;;15.17;59.97;100171.00;10331322;28;20468;-57
2023/04/29 06:06:37;;;;;;;7.25;4.25;;;;;;;15.21;59.41;100171.41;10332116;28;20518;-57
2023/04/29 06:11:38;;;;;;;6.45;4.28;;;;;;;15.23;59.13;100188.28;10323443;28;20057;-57
2023/04/29 06:16:40;;;;;;;8.55;4.82;;;;;;;15.20;58.91;100192.22;10327072;28;20824;-57
2023/04/29 06:21:41;;;;;;;6.70;4.65;;;;;;;14.98;59.25;100207.03;10331460;28;20043;-57
2023/04/29 06:26:43;;;;;;;6.70;4.30;;;;;;;15.01;58.85;100209.34;10319846;28;20101;-57
2023/04/29 06:31:44;;;;;;;10.88;5.05;;;;;;;15.05;58.84;100205.19;10330825;28;20081;-57
2023/04/29 06:36:46;;;;;;;5.90;3.97;;;;;;;14.87;58.64;100220.16;10327974;28;20066;-57
2023/04/29 06:41:47;;;;;;;7.45;4.00;;;;;;;14.96;58.44;100228.06;10327108;28;20139;-57
2023/04/29 06:46:48;;;;;;;8.02;4.55;;;;;;;14.95;58.48;100229.09;10338125;28;20050;-57
2023/04/29 06:51:50;;;;;;;6.75;3.92;;;;;;;14.88;58.49;100224.53;10320591;28;20100;-57
2023/04/29 06:56:51;;;;;;;7.15;4.05;;;;;;;14.90;58.57;100235.16;10312113;28;20066;-57
2023/04/29 07:01:52;;;;;;;6.53;3.97;;;;;;;15.09;58.30;100244.31;10317175;28;20508;-57
2023/04/29 07:06:54;;;;;;;7.32;4.43;;;;;;;15.13;58.26;100251.00;10324318;28;20088;-57
2023/04/29 07:11:56;;;;;;;8.52;5.63;;;;;;;15.06;58.50;100250.97;10320387;28;20149;-57
2023/04/29 07:16:57;;;;;;;6.40;3.83;;;;;;;14.92;58.27;100254.72;10310709;28;20084;-57
2023/04/29 07:21:59;;;;;;;5.10;3.17;;;;;;;15.04;58.47;100260.34;10314353;28;20129;-57
2023/04/29 07:27:00;;;;;;;5.00;2.78;;;;;;;14.99;58.53;100268.28;10318559;28;20043;-57
2023/04/29 07:32:01;;;;;;;7.20;3.67;;;;;;;15.10;58.39;100269.50;10319230;28;20159;-57
2023/04/29 07:37:03;;;;;;;5.95;3.03;;;;;;;15.06;58.54;100278.03;10328446;28;20068;-57
2023/04/29 07:42:04;;;;;;;5.78;2.35;;;;;;;15.13;58.49;100280.78;10327892;28;20077;-57
2023/04/29 07:47:05;;;;;;;6.07;3.50;;;;;;;15.24;58.63;100282.88;10326213;28;20050;-57
2023/04/29 07:52:08;;;;;;;7.03;3.20;;;;;;;15.15;58.71;100280.56;10322596;28;20106;-57
2023/04/29 07:57:10;;;;;;;5.00;2.90;;;;;;;15.19;58.80;100300.78;10328814;28;20054;-57
2023/04/29 08:02:12;;;;;;;8.15;4.03;;;;;;;15.21;58.57;100304.09;10328186;28;20537;-57
2023/04/29 08:07:14;;;;;;;6.18;3.30;;;;;;;15.00;59.00;100311.34;10327874;28;20112;-58
2023/04/29 08:12:15;;;;;;;8.40;3.33;;;;;;;15.07;59.12;100309.50;10317432;28;20042;-57
2023/04/29 08:17:16;;;;;;;5.20;3.17;;;;;;;15.17;58.95;100319.09;10325284;28;20359;-58
2023/04/29 08:22:18;;;;;;;6.43;3.20;;;;;;;15.04;59.36;100325.31;10326534;28;20081;-57
2023/04/29 08:27:20;;;;;;;5.60;3.03;;;;;;;15.12;59.19;100330.53;10326202;28;20069;-58
2023/04/29 08:32:22;;;;;;;4.57;2.30;;;;;;;14.88;59.75;100340.06;10329846;28;20489;-59
2023/04/29 08:37:23;;;;;;;4.40;2.33;;;;;;;15.02;59.68;100339.06;10334564;28;20050;-58
2023/04/29 08:42:35;;;;;;;4.85;2.92;;;;;;;15.04;60.04;100345.09;10335924;28;20046;-58
2023/04/29 08:47:37;;;;;;;15.63;3.75;;;;;;;15.06;60.18;100351.13;10339147;28;20056;-58
2023/04/29 08:52:39;;;;;;;5.78;2.65;;;;;;;14.94;60.21;100350.06;10333813;28;20073;-58
2023/04/29 08:57:42;;;;;;;4.97;2.55;;;;;;;15.16;59.65;100349.91;10333924;28;20054;-58
2023/04/29 09:02:49;;;;;;;4.07;2.50;;;;;;;15.26;59.62;100353.91;10332546;28;20376;-59
2023/04/29 09:07:51;;;;;;;6.55;2.78;;;;;;;15.32;59.41;100357.63;10339413;28;20037;-58
2023/04/29 09:12:59;;;;;;;3.50;2.45;;;;;;;15.26;59.36;100359.31;10338788;28;20085;-58
2023/04/29 09:18:00;;;;;;;3.30;1.67;;;;;;;15.52;58.72;100368.50;10329608;28;20050;-58
2023/04/29 09:23:03;;;;;;;5.85;2.42;;;;;;;15.64;58.43;100364.13;10338810;28;20046;-58
2023/04/29 09:28:15;;;;;;;4.50;2.33;;;;;;;15.54;58.69;100371.84;10349196;28;20054;-58
2023/04/29 09:33:16;;;;;;;6.45;2.10;;;;;;;15.40;58.88;100379.13;10346857;28;20097;-58
2023/04/29 09:38:18;;;;;;;3.17;2.00;;;;;;;15.35;58.80;100383.50;10338272;28;20046;-58
2023/04/29 09:43:20;;;;;;;4.22;2.10;;;;;;;15.43;58.77;100388.72;10346590;28;20047;-58
2023/04/29 09:48:31;;;;;;;3.40;1.95;;;;;;;15.26;59.01;100391.81;10342005;28;20509;-59
2023/04/29 09:53:36;;;;;;;4.07;1.83;;;;;;;15.24;59.06;100399.31;10355552;28;20018;-58
2023/04/29 09:58:39;;;;;;;2.72;1.33;;;;;;;15.31;58.82;100393.06;10353723;28;20046;-57
2023/04/29 10:03:41;;;;;;;2.53;1.30;;;;;;;15.08;59.17;100391.56;10355452;28;20043;-58
2023/04/29 10:08:45;;;;;;;2.47;1.20;;;;;;;15.19;58.85;100396.38;10345157;28;20105;-59
2023/04/29 10:13:49;;;;;;;4.00;0.82;;;;;;;15.37;58.62;100394.94;10320699;28;20047;-59
2023/04/29 10:18:55;;;;;;;3.35;1.20;;;;;;;15.49;58.21;100400.59;10321115;28;20053;-59
2023/04/29 10:23:58;;;;;;;2.17;1.25;;;;;;;16.02;56.87;100401.44;10332195;28;20104;-59
2023/04/29 10:29:01;;;;;;;1.55;0.90;;;;;;;16.34;56.34;100392.63;10325622;28;20058;-59
2023/04/29 10:34:02;;;;;;;1.67;1.02;;;;;;;16.73;55.48;100386.22;10328975;28;20080;-59
2023/04/29 10:39:08;;;;;;;1.67;1.02;;;;;;;16.88;54.90;100383.25;10326479;28;20042;-59
2023/04/29 10:44:10;;;;;;;1.52;0.70;;;;;;;16.90;54.45;100389.28;10330441;28;20129;-59
2023/04/29 10:49:11;;;;;;;2.22;0.80;;;;;;;16.97;54.00;100387.38;10322046;28;20050;-59
2023/04/29 10:54:19;;;;;;;1.60;0.90;;;;;;;17.04;53.53;100385.47;10321431;28;20050;-60
2023/04/29 10:59:32;;;;;;;1.00;0.80;;;;;;;17.04;53.93;100395.47;10321749;28;20062;-59
2023/04/29 11:04:33;;;;;;;2.55;1.45;;;;;;;17.08;53.55;100401.31;10329933;28;20039;-59
2023/04/29 11:09:37;;;;;;;3.20;1.75;;;;;;;17.15;53.44;100396.69;10325784;28;20121;-59
2023/04/29 11:14:48;;;;;;;1.45;0.70;;;;;;;17.16;53.27;100399.19;10328232;28;20042;-60
2023/04/29 11:19:50;;;;;;;1.38;1.00;;;;;;;17.17;53.46;100400.00;10333662;28;20070;-59
2023/04/29 11:25:00;;;;;;;1.17;0.65;;;;;;;17.16;53.31;100395.63;10330912;28;20046;-59
2023/04/29 11:30:05;;;;;;;1.50;0.85;;;;;;;17.23;53.16;100393.69;10322835;28;20046;-60
2023/04/29 11:35:10;;;;;;;2.03;0.80;;;;;;;17.28;53.15;100396.59;10325249;28;20042;-59
2023/04/29 11:40:13;;;;;;;1.13;0.80;;;;;;;17.41;52.95;100393.78;10325878;28;20049;-59
2023/04/29 11:45:17;;;;;;;1.95;0.60;;;;;;;17.50;52.41;100399.78;10324231;28;20174;-60
2023/04/29 11:50:19;;;;;;;1.23;0.77;;;;;;;17.32;52.72;100410.56;10317340;28;20066;-59
2023/04/29 11:55:21;;;;;;;1.10;0.73;;;;;;;17.31;52.67;100422.50;10322811;28;20047;-59
2023/04/29 12:00:23;;;;;;;1.20;0.82;;;;;;;17.27;52.70;100408.50;10318755;28;20039;-59
2023/04/29 12:05:25;;;;;;;2.58;1.10;;;;;;;17.36;52.51;100419.97;10314991;28;20058;-60
2023/04/29 12:10:27;;;;;;;1.42;0.70;;;;;;;17.41;52.17;100426.38;10330040;28;20426;-60
2023/04/29 12:15:29;;;;;;;1.17;0.65;;;;;;;17.36;52.29;100428.13;10324383;28;20073;-60
2023/04/29 12:20:31;;;;;;;1.95;0.90;;;;;;;17.45;51.88;100432.22;10330877;28;20485;-60
2023/04/29 12:25:33;;;;;;;1.63;1.30;;;;;;;17.56;51.98;100423.38;10326097;28;20054;-60
2023/04/29 12:30:35;;;;;;;3.00;0.90;;;;;;;17.67;51.87;100421.00;10334774;28;20109;-59
2023/04/29 12:35:36;;;;;;;1.20;0.68;;;;;;;17.84;51.40;100427.59;10320292;28;20105;-60
2023/04/29 12:40:37;;;;;;;1.33;0.80;;;;;;;18.01;51.13;100431.41;10326601;28;20074;-60
2023/04/29 12:45:39;;;;;;;2.13;0.80;;;;;;;18.07;51.18;100431.56;10323501;28;20073;-60
2023/04/29 12:50:41;;;;;;;1.83;0.77;;;;;;;18.29;50.67;100438.25;10325813;28;20073;-60
2023/04/29 12:55:42;;;;;;;1.20;0.82;;;;;;;18.45;50.66;100431.41;10319695;28;20074;-58
2023/04/29 13:00:44;;;;;;;2.40;0.60;;;;;;;18.57;50.44;100440.47;10317155;28;20085;-58
2023/04/29 13:05:47;;;;;;;1.42;1.27;;;;;;;18.55;50.40;100445.31;10336235;28;20125;-58
2023/04/29 13:10:48;;;;;;;1.50;0.85;;;;;;;18.29;50.76;100440.16;10317727;28;20055;-59
2023/04/29 13:15:50;;;;;;;1.52;0.68;;;;;;;18.10;51.20;100445.56;10332350;28;20054;-59
2023/04/29 13:20:52;;;;;;;3.50;1.10;;;;;;;17.84;51.75;100455.59;10308647;28;20137;-58
2023/04/29 13:25:54;;;;;;;1.70;0.90;;;;;;;17.64;52.43;100450.28;10312944;28;20516;-58
2023/04/29 13:30:55;;;;;;;2.20;1.05;;;;;;;17.53;52.45;100448.25;10328608;28;20057;-58
2023/04/29 13:35:57;;;;;;;6.45;1.10;;;;;;;17.49;52.57;100452.47;10335722;28;20140;-58
2023/04/29 13:40:58;;;;;;;2.45;0.93;;;;;;;17.60;52.48;100457.22;10325969;28;20099;-59
2023/04/29 13:46:00;;;;;;;1.92;1.02;;;;;;;17.56;52.49;100456.00;10336136;28;20054;-58
2023/04/29 13:51:01;;;;;;;1.45;0.90;;;;;;;17.71;52.22;100471.16;10335817;28;20261;-58
2023/04/29 13:56:06;;;;;;;1.42;1.30;;;;;;;17.70;52.08;100470.31;10330194;28;20450;-59
2023/04/29 14:01:10;;;;;;;5.82;1.25;;;;;;;17.66;52.27;100469.09;10327942;28;20047;-59
2023/04/29 14:06:33;;;;;;;2.30;1.17;;;;;;;17.47;52.71;100472.78;10322341;28;20047;-61
2023/04/29 14:11:35;;;;;;;1.27;1.10;;;;;;;17.42;53.04;100476.16;10326709;28;20049;-60
2023/04/29 14:16:37;;;;;;;1.25;1.15;;;;;;;17.40;52.90;100481.81;10323638;28;20566;-61
2023/04/29 14:21:38;;;;;;;2.35;1.45;;;;;;;17.42;52.87;100476.16;10327830;28;20066;-61
2023/04/29 14:26:40;;;;;;;2.13;1.90;;;;;;;17.43;52.94;100485.97;10313608;28;20078;-61
2023/04/29 14:31:42;;;;;;;3.80;2.05;;;;;;;17.32;53.22;100489.38;10324529;28;20486;-61
2023/04/29 14:36:44;;;;;;;3.28;1.92;;;;;;;17.15;53.53;100495.31;10335330;28;20413;-60
2023/04/29 14:41:47;;;;;;;2.88;2.17;;;;;;;17.34;53.04;100496.28;10313950;28;20056;-60
2023/04/29 14:46:48;;;;;;;4.18;2.25;;;;;;;17.28;53.23;100497.13;10307807;28;20042;-62
2023/04/29 14:51:50;;;;;;;3.20;2.17;;;;;;;17.48;52.60;100507.91;10327887;28;20073;-62
2023/04/29 14:56:52;;;;;;;1.40;1.10;;;;;;;17.51;53.24;100518.31;10324797;28;20046;-61
2023/04/29 15:01:53;;;;;;;1.20;0.70;;;;;;;17.34;53.81;100520.72;10337660;28;20058;-60
2023/04/29 15:06:56;;;;;;;1.08;0.43;;;;;;;17.23;53.71;100518.69;10345661;28;20034;-62
2023/04/29 15:11:57;;;;;;;7.13;1.70;;;;;;;17.02;54.15;100533.38;10372982;28;20042;-60
2023/04/29 15:16:59;;;;;;;1.45;0.60;;;;;;;16.93;54.49;100532.78;10378585;28;20046;-62
2023/04/29 15:22:00;;;;;;;0.38;0.30;;;;;;;16.82;54.52;100539.72;10361986;28;20041;-61
2023/04/29 15:27:02;;;;;;;0.60;0.60;;;;;;;16.76;54.54;100540.50;10362225;28;20050;-62
2023/04/29 15:32:03;;;;;;;0.60;0.40;;;;;;;16.63;54.59;100546.81;10353815;28;20054;-61
2023/04/29 15:37:05;;;;;;;1.70;0.70;;;;;;;16.51;54.52;100551.22;10334861;28;20038;-62
2023/04/29 15:42:08;;;;;;;2.50;1.30;;;;;;;16.42;54.67;100561.44;10328887;28;20042;-62
2023/04/29 15:47:09;;;;;;;2.70;1.17;;;;;;;16.47;54.28;100566.25;10323447;28;20049;-63
2023/04/29 15:52:11;;;;;;;3.05;1.17;;;;;;;16.38;54.76;100562.91;10329956;28;20042;-62
2023/04/29 15:57:13;;;;;;;1.98;1.20;;;;;;;16.35;54.79;100565.19;10324380;28;20555;-64
2023/04/29 16:02:15;;;;;;;2.90;2.05;;;;;;;16.30;54.59;100573.97;10316420;28;20038;-63
2023/04/29 16:07:17;;;;;;;2.90;1.95;;;;;;;16.27;54.21;100568.94;10334942;28;20097;-61
2023/04/29 16:12:19;;;;;;;4.05;2.63;;;;;;;16.28;54.21;100567.09;10341002;28;20053;-62
2023/04/29 16:17:20;;;;;;;4.57;3.20;;;;;;;16.28;53.67;100576.06;10350889;28;20073;-62
2023/04/29 16:22:22;;;;;;;5.97;3.33;;;;;;;16.19;53.86;100577.28;10337915;28;20053;-60
2023/04/29 16:27:23;;;;;;;7.35;4.38;;;;;;;16.23;53.74;100571.25;10343925;28;20050;-60
2023/04/29 16:32:27;;;;;;;6.13;3.22;;;;;;;16.24;53.96;100578.34;10330388;28;20569;-61
2023/04/29 16:37:28;;;;;;;5.13;3.55;;;;;;;16.17;54.10;100585.66;10335339;28;20095;-61
2023/04/29 16:42:30;;;;;;;5.00;3.30;;;;;;;16.17;54.04;100580.22;10327401;28;20039;-62
2023/04/29 16:47:31;;;;;;;5.63;4.05;;;;;;;16.20;54.24;100584.41;10333725;28;20101;-63
2023/04/29 16:52:33;;;;;;;5.45;3.83;;;;;;;16.18;54.07;100578.34;10339765;28;20100;-62
2023/04/29 16:57:35;;;;;;;6.72;4.20;;;;;;;16.11;53.96;100586.47;10314006;28;20050;-62
2023/04/29 17:02:39;;;;;;;5.22;3.13;;;;;;;16.01;54.18;100597.69;10328647;28;20054;-62
2023/04/29 17:07:41;;;;;;;5.50;3.88;;;;;;;16.01;54.41;100599.59;10348241;28;20043;-62
2023/04/29 17:12:43;;;;;;;5.38;3.60;;;;;;;16.03;54.15;100598.34;10344771;28;20066;-62
2023/04/29 17:17:45;;;;;;;6.53;3.83;;;;;;;16.02;54.17;100607.53;10353760;28;20437;-63
2023/04/29 17:22:46;;;;;;;5.30;3.60;;;;;;;16.05;54.16;100611.69;10341362;28;20100;-62
2023/04/29 17:27:48;;;;;;;4.93;3.78;;;;;;;15.93;54.59;100608.75;10321047;28;20065;-62
2023/04/29 17:32:50;;;;;;;7.05;4.38;;;;;;;16.01;54.40;100613.97;10349433;28;20046;-63
2023/04/29 17:37:51;;;;;;;7.55;5.43;;;;;;;15.96;54.24;100612.94;10348704;28;20043;-62
2023/04/29 17:42:52;;;;;;;7.55;5.28;;;;;;;16.00;54.12;100620.44;10354126;28;20148;-62
2023/04/29 17:47:54;;;;;;;7.82;5.55;;;;;;;15.97;54.04;100642.53;10362812;28;20069;-62
2023/04/29 17:52:55;;;;;;;9.10;5.13;;;;;;;15.94;53.85;100634.00;10364573;28;20039;-62
2023/04/29 17:57:57;;;;;;;7.43;5.50;;;;;;;15.97;53.79;100633.56;10334687;28;21209;-60
2023/04/29 18:02:58;;;;;;;8.57;5.82;;;;;;;15.83;54.13;100638.94;10362909;28;20042;-61
2023/04/29 18:08:00;;;;;;;8.00;5.70;;;;;;;15.82;53.89;100642.72;10374984;28;20062;-60
2023/04/29 18:13:02;;;;;;;11.80;7.70;;;;;;;15.71;54.22;100642.44;10367980;28;20053;-59
2023/04/29 18:18:03;;;;;;;8.90;6.68;;;;;;;15.57;54.57;100646.97;10376006;28;20083;-61
2023/04/29 18:23:05;;;;;;;9.55;5.45;;;;;;;15.63;54.49;100646.97;10378621;28;20086;-60
2023/04/29 18:28:07;;;;;;;7.75;5.03;;;;;;;15.63;54.42;100657.81;10362366;28;20070;-62
2023/04/29 18:33:14;;;;;;;7.20;5.72;;;;;;;15.62;54.64;100660.72;10354073;28;20049;-61
2023/04/29 18:38:16;;;;;;;8.70;6.07;;;;;;;15.61;54.66;100667.19;10359785;28;20054;-62
2023/04/29 18:43:23;;;;;;;9.85;6.35;;;;;;;15.64;54.76;100656.78;10350338;28;20043;-60
2023/04/29 18:48:24;;;;;;;8.40;6.60;;;;;;;15.70;54.59;100667.84;10369996;28;20038;-61
2023/04/29 18:53:26;;;;;;;11.98;7.05;;;;;;;15.69;54.81;100663.47;10348734;28;20301;-61
2023/04/29 18:58:27;;;;;;;10.25;6.55;;;;;;;15.64;55.02;100670.34;10354332;28;20049;-61
2023/04/29 19:03:29;;;;;;;11.98;6.93;;;;;;;15.58;55.06;100673.88;10357004;28;20039;-61
2023/04/29 19:08:30;;;;;;;15.60;8.20;;;;;;;15.53;55.21;100673.63;10350826;28;20081;-61
2023/04/29 19:13:32;;;;;;;12.50;7.30;;;;;;;15.54;55.17;100680.72;10352632;28;20042;-61
2023/04/29 19:18:33;;;;;;;9.93;6.85;;;;;;;15.41;55.72;100688.78;10362596;28;20046;-61
2023/04/29 19:23:34;;;;;;;13.63;7.47;;;;;;;15.38;55.84;100697.28;10338472;28;20045;-61
2023/04/29 19:28:36;;;;;;;10.15;6.57;;;;;;;15.34;56.10;100690.59;10358071;28;20421;-62
2023/04/29 19:33:37;;;;;;;9.50;6.97;;;;;;;15.32;56.30;100696.19;10352615;28;20490;-62
2023/04/29 19:38:39;;;;;;;11.75;7.45;;;;;;;15.34;56.41;100710.38;10366846;28;20050;-62
2023/04/29 19:43:40;;;;;;;12.00;7.35;;;;;;;15.38;56.17;100708.97;10366374;28;20038;-61
2023/04/29 19:48:42;;;;;;;10.48;7.30;;;;;;;15.36;56.27;100704.78;10360460;28;20050;-63
2023/04/29 19:53:43;;;;;;;10.85;7.43;;;;;;;15.32;56.74;100715.16;10354984;28;20050;-61
2023/04/29 19:58:45;;;;;;;11.65;7.47;;;;;;;15.33;56.72;100716.03;10357209;28;20074;-62
2023/04/29 20:03:46;;;;;;;11.43;7.20;;;;;;;15.36;56.75;100723.75;10363597;28;20051;-62
2023/04/29 20:08:47;;;;;;;13.27;7.88;;;;;;;15.36;56.68;100724.56;10359502;28;20042;-61
2023/04/29 20:13:49;;;;;;;10.20;6.90;;;;;;;15.38;56.69;100721.66;10358336;28;20042;-60
2023/04/29 20:18:50;;;;;;;10.90;7.97;;;;;;;15.34;56.77;100728.53;10358378;28;20134;-63
2023/04/29 20:23:52;;;;;;;10.68;7.78;;;;;;;15.34;56.89;100729.34;10345384;28;20047;-61
2023/04/29 20:28:53;;;;;;;12.27;7.60;;;;;;;15.35;56.74;100732.91;10327695;28;20089;-61
2023/04/29 20:33:55;;;;;;;9.73;7.10;;;;;;;15.34;56.72;100732.06;10338720;28;20050;-61
2023/04/29 20:38:56;;;;;;;11.30;7.72;;;;;;;15.34;56.62;100739.34;10336205;28;20042;-60
2023/04/29 20:43:58;;;;;;;14.68;8.15;;;;;;;15.31;56.80;100734.34;10332662;28;20085;-60
2023/04/29 20:48:59;;;;;;;11.13;8.43;;;;;;;15.30;56.99;100733.47;10327565;28;20047;-60
2023/04/29 20:54:01;;;;;;;9.95;6.60;;;;;;;15.21;57.15;100734.69;10334145;28;20109;-61
2023/04/29 20:59:03;;;;;;;10.30;6.88;;;;;;;15.18;56.92;100730.47;10299354;28;20076;-61
2023/04/29 21:04:04;;;;;;;10.82;8.10;;;;;;;15.16;56.97;100734.44;10329715;28;20042;-61
2023/04/29 21:09:07;;;;;;;10.98;8.13;;;;;;;15.14;56.95;100734.63;10314896;28;20552;-61
2023/04/29 21:14:09;;;;;;;11.98;7.90;;;;;;;15.18;56.90;100745.91;10333491;28;20049;-61
2023/04/29 21:19:10;;;;;;;13.20;9.32;;;;;;;15.17;56.52;100744.25;10344103;28;20050;-61
2023/04/29 21:24:11;;;;;;;9.85;7.47;;;;;;;15.15;56.88;100744.44;10321941;28;20046;-61
2023/04/29 21:29:13;;;;;;;11.55;8.23;;;;;;;15.18;56.77;100744.03;10325052;28;20078;-61
2023/04/29 21:34:15;;;;;;;12.27;8.43;;;;;;;15.20;56.86;100743.84;10351686;28;20042;-60
2023/04/29 21:39:16;;;;;;;12.60;8.40;;;;;;;15.22;56.87;100744.47;10339387;28;20348;-61
2023/04/29 21:44:17;;;;;;;9.23;7.65;;;;;;;15.18;56.83;100751.31;10349050;28;20042;-62
2023/04/29 21:49:19;;;;;;;15.18;8.40;;;;;;;15.20;56.98;100754.66;10330088;28;20197;-61
2023/04/29 21:54:21;;;;;;;11.57;8.52;;;;;;;15.20;56.93;100752.78;10347716;28;20042;-61
2023/04/29 21:59:23;;;;;;;9.85;8.15;;;;;;;15.22;57.01;100756.13;10360375;28;20054;-60
2023/04/29 22:04:24;;;;;;;10.85;8.13;;;;;;;15.25;56.87;100760.34;10343828;28;20564;-61
2023/04/29 22:09:26;;;;;;;12.63;8.93;;;;;;;15.22;57.23;100761.56;10341792;28;20050;-60
2023/04/29 22:14:27;;;;;;;14.25;9.65;;;;;;;15.22;57.30;100760.72;10366739;28;20054;-61
2023/04/29 22:19:29;;;;;;;10.13;8.73;;;;;;;15.19;57.58;100764.69;10349059;28;20110;-61
2023/04/29 22:24:30;;;;;;;12.75;8.30;;;;;;;15.19;57.78;100782.81;10362441;28;20111;-61
2023/04/29 22:29:32;;;;;;;14.07;9.40;;;;;;;15.11;58.20;100788.34;10319453;28;20498;-61
2023/04/29 22:34:33;;;;;;;12.38;9.05;;;;;;;15.07;58.64;100782.50;10345237;28;20095;-61
2023/04/29 22:39:35;;;;;;;16.10;9.35;;;;;;;15.03;58.76;100792.03;10360096;28;20127;-60
2023/04/29 22:44:36;;;;;;;16.80;10.10;;;;;;;14.99;58.95;100797.00;10345432;28;20037;-61
2023/04/29 22:49:37;;;;;;;12.93;9.63;;;;;;;14.99;58.75;100796.16;10355505;28;20568;-61
2023/04/29 22:54:39;;;;;;;13.35;10.00;;;;;;;14.94;58.82;100793.19;10357639;28;20058;-61
2023/04/29 22:59:40;;;;;;;14.20;10.00;;;;;;;14.96;59.08;100801.97;10354261;28;20046;-60
2023/04/29 23:04:41;;;;;;;14.95;9.07;;;;;;;14.94;59.03;100799.44;10368427;28;20108;-60
2023/04/29 23:09:43;;;;;;;14.25;10.38;;;;;;;14.93;59.13;100799.63;10355454;28;20117;-61